Time;durP1;ratioP1;P1;durP2;ratioP2;P2;SDS_P1;SDS_P2;PMS_P1;PMS_P2;Temp;Humidity;BMP_temperature;BMP_pressure;BME280_temperature;BME280_humidity;BME280_pressure;Samples;Min_cycle;Max_cycle;Signal;HPM_P1;HPM_P2
2021/01/27 00:01:01;;;;;;;4.10;2.50;;;;;9.70;101346.00;;;;5029331;28;20203;-80
2021/01/27 00:03:28;;;;;;;3.80;2.55;;;;;9.70;101344.00;;;;5030350;28;20208;-80
2021/01/27 00:05:55;;;;;;;3.15;2.28;;;;;9.60;101356.00;;;;5029066;28;20231;-81
2021/01/27 00:08:22;;;;;;;3.13;2.20;;;;;9.60;101349.00;;;;5028032;28;20200;-81
2021/01/27 00:16:57;;;;;;;4.00;2.72;;;;;9.50;101346.00;;;;5029878;28;20219;-79
2021/01/27 00:19:24;;;;;;;4.25;2.60;;;;;9.50;101344.00;;;;5030444;28;20204;-81
2021/01/27 00:21:51;;;;;;;3.75;2.45;;;;;9.50;101341.00;;;;5029511;28;20662;-80
2021/01/27 00:24:17;;;;;;;4.93;2.30;;;;;9.50;101347.00;;;;5029906;28;20196;-80
2021/01/27 00:26:44;;;;;;;3.58;2.33;;;;;9.50;101346.00;;;;5029128;28;20251;-81
2021/01/27 00:29:11;;;;;;;4.72;2.38;;;;;9.50;101348.00;;;;5029828;28;20207;-80
2021/01/27 00:31:38;;;;;;;2.95;2.20;;;;;9.50;101347.00;;;;5029618;28;20198;-80
2021/01/27 00:34:05;;;;;;;3.80;2.38;;;;;9.50;101342.00;;;;5029069;28;20716;-80
2021/01/27 00:36:32;;;;;;;4.10;2.42;;;;;9.50;101356.00;;;;5029877;28;20201;-81
2021/01/27 00:38:59;;;;;;;4.35;2.15;;;;;9.50;101337.00;;;;5030088;28;20608;-81
2021/01/27 00:41:25;;;;;;;3.03;1.95;;;;;9.50;101338.00;;;;5030308;28;20197;-80
2021/01/27 00:43:52;;;;;;;2.67;1.88;;;;;9.50;101329.00;;;;5029761;28;20199;-80
2021/01/27 00:46:19;;;;;;;2.60;1.90;;;;;9.50;101328.00;;;;5028325;28;20227;-81
2021/01/27 00:48:48;;;;;;;3.97;1.95;;;;;9.50;101322.00;;;;5029121;28;20204;-80
2021/01/27 00:51:15;;;;;;;3.30;1.75;;;;;9.40;101331.00;;;;5029444;28;20207;-80
2021/01/27 00:53:42;;;;;;;4.85;1.80;;;;;9.40;101323.00;;;;5029501;28;20197;-80
2021/01/27 00:56:09;;;;;;;3.38;1.85;;;;;9.40;101312.00;;;;5029301;28;20208;-80
2021/01/27 00:58:36;;;;;;;3.50;1.83;;;;;9.40;101310.00;;;;5029414;28;20258;-80
2021/01/27 01:01:03;;;;;;;3.47;2.13;;;;;9.40;101317.00;;;;5029197;28;20243;-80
2021/01/27 01:03:30;;;;;;;3.60;1.65;;;;;9.40;101309.00;;;;5030009;28;20192;-80
2021/01/27 01:05:56;;;;;;;3.25;2.20;;;;;9.40;101308.00;;;;5029465;28;20231;-81
2021/01/27 01:08:24;;;;;;;4.38;2.03;;;;;9.40;101302.00;;;;5029060;28;20206;-81
2021/01/27 01:10:54;;;;;;;3.90;2.22;;;;;9.40;101300.00;;;;5028866;28;20211;-81
2021/01/27 01:13:23;;;;;;;3.17;1.95;;;;;9.40;101294.00;;;;5029007;28;20208;-81
2021/01/27 01:15:50;;;;;;;4.70;2.50;;;;;9.40;101289.00;;;;5030043;28;20192;-81
2021/01/27 01:18:17;;;;;;;3.83;1.83;;;;;9.40;101272.00;;;;5028740;28;20207;-81
2021/01/27 01:20:43;;;;;;;5.65;2.42;;;;;9.40;101271.00;;;;5030965;28;20669;-80
2021/01/27 01:23:11;;;;;;;3.35;1.95;;;;;9.40;101263.00;;;;5030296;28;20193;-81
2021/01/27 01:25:39;;;;;;;3.30;2.22;;;;;9.40;101268.00;;;;5030676;28;20212;-81
2021/01/27 01:28:06;;;;;;;4.97;2.33;;;;;9.40;101256.00;;;;5029444;28;20254;-81
2021/01/27 01:30:35;;;;;;;4.18;2.17;;;;;9.40;101246.00;;;;5029085;28;20204;-81
2021/01/27 01:33:04;;;;;;;4.93;2.88;;;;;9.40;101246.00;;;;5029720;28;20569;-81
2021/01/27 01:35:31;;;;;;;2.88;2.38;;;;;9.40;101233.00;;;;5034342;28;20234;-81
2021/01/27 01:37:58;;;;;;;3.00;2.45;;;;;9.30;101228.00;;;;5035301;28;20204;-81
2021/01/27 01:40:29;;;;;;;3.38;2.28;;;;;9.30;101219.00;;;;5028944;28;20219;-81
2021/01/27 01:43:07;;;;;;;4.55;2.95;;;;;9.30;101213.00;;;;5029986;28;20196;-81
2021/01/27 01:45:36;;;;;;;4.43;2.80;;;;;9.30;101204.00;;;;5030642;28;20315;-81
2021/01/27 01:48:08;;;;;;;3.85;2.85;;;;;9.30;101200.00;;;;5027477;28;20200;-82
2021/01/27 01:50:35;;;;;;;3.58;2.65;;;;;9.30;101194.00;;;;5029129;28;20211;-81
2021/01/27 01:53:01;;;;;;;4.05;3.10;;;;;9.30;101203.00;;;;5027378;28;20611;-81
2021/01/27 01:55:28;;;;;;;7.07;2.58;;;;;9.30;101192.00;;;;5028400;28;20250;-81
2021/01/27 01:57:55;;;;;;;3.40;2.70;;;;;9.20;101185.00;;;;5028797;28;20216;-81
2021/01/27 02:00:26;;;;;;;4.07;2.72;;;;;9.30;101180.00;;;;5028352;28;20207;-81
2021/01/27 02:02:53;;;;;;;4.00;2.60;;;;;9.30;101182.00;;;;5027860;28;20291;-81
2021/01/27 02:05:22;;;;;;;4.65;2.53;;;;;9.20;101170.00;;;;5028530;28;20224;-81
2021/01/27 02:07:50;;;;;;;3.33;2.50;;;;;9.30;101168.00;;;;5027857;28;20246;-81
2021/01/27 02:10:18;;;;;;;5.70;2.45;;;;;9.20;101163.00;;;;5029369;28;21019;-80
2021/01/27 02:13:19;;;;;;;4.32;2.70;;;;;9.10;101151.00;;;;5028450;28;20200;-81
2021/01/27 02:16:13;;;;;;;4.22;2.47;;;;;9.10;101156.00;;;;5017995;28;20197;-81
2021/01/27 02:19:17;;;;;;;4.10;2.75;;;;;9.10;101151.00;;;;5026127;28;20193;-81
2021/01/27 02:22:18;;;;;;;3.13;2.55;;;;;9.00;101141.00;;;;5028318;28;20204;-81
2021/01/27 02:25:20;;;;;;;4.50;3.08;;;;;9.00;101129.00;;;;5027916;28;20203;-81
2021/01/27 02:27:50;;;;;;;4.07;2.47;;;;;9.10;101134.00;;;;4986537;28;20200;-81
2021/01/27 02:30:43;;;;;;;6.88;2.30;;;;;9.00;101119.00;;;;5032349;28;20208;-81
2021/01/27 02:33:54;;;;;;;3.20;2.55;;;;;9.00;101133.00;;;;5023083;28;20204;-80
2021/01/27 02:36:24;;;;;;;5.18;2.63;;;;;9.10;101123.00;;;;5013455;28;20197;-81
2021/01/27 02:38:56;;;;;;;3.50;2.65;;;;;9.10;101124.00;;;;5012321;28;20197;-80
2021/01/27 02:41:29;;;;;;;3.65;2.70;;;;;9.10;101128.00;;;;5013355;28;20201;-81
2021/01/27 02:43:58;;;;;;;4.28;2.53;;;;;9.10;101125.00;;;;5011691;28;20208;-81
2021/01/27 02:46:30;;;;;;;3.22;2.42;;;;;9.10;101113.00;;;;5012433;28;20282;-80
2021/01/27 02:49:02;;;;;;;2.70;2.35;;;;;9.10;101111.00;;;;5012001;28;20204;-80
2021/01/27 02:51:37;;;;;;;3.00;2.30;;;;;9.10;101094.00;;;;5012550;28;20197;-80
2021/01/27 02:54:10;;;;;;;2.72;2.40;;;;;9.10;101083.00;;;;5004809;28;20222;-80
2021/01/27 02:56:41;;;;;;;2.90;2.28;;;;;9.10;101084.00;;;;5012461;28;20197;-80
2021/01/27 02:59:15;;;;;;;2.58;2.05;;;;;9.10;101085.00;;;;5012187;28;20204;-80
2021/01/27 03:01:48;;;;;;;3.45;2.50;;;;;9.10;101083.00;;;;5012314;28;20205;-80
2021/01/27 03:04:18;;;;;;;2.35;1.95;;;;;9.20;101070.00;;;;5010198;28;20733;-79
2021/01/27 03:06:48;;;;;;;2.67;2.10;;;;;9.20;101075.00;;;;5011653;28;20229;-80
2021/01/27 03:09:20;;;;;;;3.85;2.65;;;;;9.20;101086.00;;;;5000849;28;20217;-80
2021/01/27 03:11:48;;;;;;;2.38;1.90;;;;;9.20;101079.00;;;;5011539;28;20197;-80
2021/01/27 03:14:15;;;;;;;2.28;1.83;;;;;9.20;101068.00;;;;5011310;28;20193;-79
2021/01/27 03:16:45;;;;;;;2.15;1.58;;;;;9.10;101066.00;;;;5013435;28;20224;-81
2021/01/27 03:19:16;;;;;;;2.83;2.22;;;;;9.10;101071.00;;;;4992181;28;20722;-79
2021/01/27 03:21:47;;;;;;;3.83;1.80;;;;;9.10;101061.00;;;;5009244;28;20296;-81
2021/01/27 03:24:18;;;;;;;2.97;1.77;;;;;9.10;101052.00;;;;5010892;28;20232;-80
2021/01/27 03:26:52;;;;;;;3.15;1.80;;;;;9.10;101046.00;;;;5012202;28;20232;-80
2021/01/27 03:29:28;;;;;;;2.08;1.60;;;;;9.10;101048.00;;;;5011235;28;20197;-80
2021/01/27 03:31:58;;;;;;;1.77;1.52;;;;;9.10;101048.00;;;;5010977;28;20267;-81
2021/01/27 03:34:32;;;;;;;2.50;1.25;;;;;9.10;101042.00;;;;5018925;28;20219;-80
2021/01/27 03:37:06;;;;;;;2.72;1.60;;;;;9.10;101041.00;;;;5030823;28;20211;-80
2021/01/27 03:39:37;;;;;;;2.42;1.70;;;;;9.10;101045.00;;;;5031556;28;20199;-81
2021/01/27 03:42:10;;;;;;;3.40;1.77;;;;;9.10;101046.00;;;;5032393;28;20196;-81
2021/01/27 03:44:44;;;;;;;1.27;1.13;;;;;9.10;101041.00;;;;5035415;28;20211;-80
2021/01/27 03:47:16;;;;;;;2.53;1.70;;;;;9.10;101015.00;;;;5032339;28;20216;-81
2021/01/27 03:49:50;;;;;;;1.85;1.40;;;;;9.10;101013.00;;;;5033156;28;20204;-80
2021/01/27 03:52:21;;;;;;;2.88;1.60;;;;;9.00;101017.00;;;;5031699;28;20207;-81
2021/01/27 03:54:53;;;;;;;1.90;1.50;;;;;9.10;101014.00;;;;5025796;28;20200;-80
2021/01/27 03:57:24;;;;;;;2.08;1.23;;;;;9.00;101017.00;;;;5034370;28;20475;-81
2021/01/27 03:59:51;;;;;;;2.70;1.50;;;;;9.00;101014.00;;;;5032993;28;20207;-81
2021/01/27 04:02:20;;;;;;;2.13;1.38;;;;;9.00;101002.00;;;;5032617;28;20343;-80
2021/01/27 04:04:48;;;;;;;5.05;1.73;;;;;9.00;100999.00;;;;5032555;28;20708;-80
2021/01/27 04:07:14;;;;;;;1.70;1.40;;;;;9.00;101011.00;;;;5031223;28;20228;-81
2021/01/27 04:09:42;;;;;;;3.08;1.58;;;;;9.00;101016.00;;;;5032167;28;20192;-80
2021/01/27 04:12:09;;;;;;;3.15;1.45;;;;;9.00;101015.00;;;;5030759;28;20208;-79
2021/01/27 04:14:36;;;;;;;1.98;1.20;;;;;9.00;101001.00;;;;5028398;28;20188;-80
2021/01/27 04:17:12;;;;;;;1.88;1.35;;;;;9.00;100998.00;;;;5028709;28;20209;-79
2021/01/27 04:19:38;;;;;;;2.15;1.42;;;;;9.00;100983.00;;;;5031019;28;20203;-79
2021/01/27 04:22:05;;;;;;;4.20;1.52;;;;;9.00;100977.00;;;;5029695;28;21029;-80
2021/01/27 04:24:32;;;;;;;2.15;1.63;;;;;9.00;100966.00;;;;5030037;28;20189;-79
2021/01/27 04:26:59;;;;;;;2.85;1.67;;;;;9.00;100976.00;;;;5029884;28;20232;-80
2021/01/27 04:29:26;;;;;;;1.30;1.20;;;;;9.00;100974.00;;;;5030619;28;20218;-80
2021/01/27 04:31:53;;;;;;;3.63;1.60;;;;;9.00;100977.00;;;;5029846;28;20204;-80
2021/01/27 04:34:20;;;;;;;1.73;1.27;;;;;9.00;100969.00;;;;5030105;28;20225;-79
2021/01/27 04:36:47;;;;;;;2.42;1.35;;;;;9.00;100959.00;;;;5029756;28;20776;-79
2021/01/27 04:39:13;;;;;;;1.80;1.48;;;;;9.00;100952.00;;;;5030067;28;20232;-79
2021/01/27 04:41:41;;;;;;;1.70;1.38;;;;;9.00;100937.00;;;;5029649;28;20533;-80
2021/01/27 04:44:09;;;;;;;1.58;1.35;;;;;8.90;100919.00;;;;5029565;28;21122;-78
2021/01/27 04:46:39;;;;;;;1.60;1.30;;;;;8.90;100921.00;;;;5028990;28;20698;-79
2021/01/27 04:49:12;;;;;;;2.60;1.70;;;;;8.90;100927.00;;;;5029111;28;20192;-78
2021/01/27 04:51:49;;;;;;;2.38;1.60;;;;;8.90;100931.00;;;;5028883;28;20201;-80
2021/01/27 04:54:28;;;;;;;2.63;1.50;;;;;8.90;100922.00;;;;5015205;28;20188;-79
2021/01/27 04:57:33;;;;;;;1.77;1.45;;;;;8.90;100927.00;;;;5029201;28;20204;-79
2021/01/27 05:00:14;;;;;;;1.52;1.20;;;;;8.90;100911.00;;;;5015946;28;20200;-79
2021/01/27 05:03:01;;;;;;;1.33;1.15;;;;;8.90;100900.00;;;;5028481;28;20212;-79
2021/01/27 05:05:31;;;;;;;1.48;1.30;;;;;8.90;100897.00;;;;5009761;28;20636;-79
2021/01/27 05:08:05;;;;;;;2.45;1.48;;;;;8.90;100897.00;;;;5026857;28;20200;-78
2021/01/27 05:10:38;;;;;;;1.30;1.20;;;;;8.90;100897.00;;;;5029494;28;20188;-79
2021/01/27 05:13:16;;;;;;;1.92;1.50;;;;;8.90;100899.00;;;;5028582;28;20728;-79
2021/01/27 05:15:43;;;;;;;2.10;1.60;;;;;8.90;100896.00;;;;5024079;28;20283;-79
2021/01/27 05:18:13;;;;;;;1.98;1.38;;;;;8.90;100891.00;;;;5021462;28;20258;-79
2021/01/27 05:20:39;;;;;;;1.65;1.42;;;;;8.90;100891.00;;;;5029084;28;20255;-79
2021/01/27 05:23:07;;;;;;;2.35;1.88;;;;;8.90;100893.00;;;;5026878;28;20571;-79
2021/01/27 05:25:42;;;;;;;2.13;1.58;;;;;8.90;100878.00;;;;5028678;28;20686;-79
2021/01/27 05:28:14;;;;;;;2.42;1.70;;;;;8.90;100870.00;;;;5028543;28;20200;-79
2021/01/27 05:30:50;;;;;;;2.92;1.42;;;;;8.90;100869.00;;;;5028601;28;20208;-79
2021/01/27 05:33:17;;;;;;;2.63;1.52;;;;;9.00;100866.00;;;;5028338;28;20235;-79
2021/01/27 05:35:44;;;;;;;2.67;1.77;;;;;9.00;100868.00;;;;5027726;28;20224;-80
2021/01/27 05:38:25;;;;;;;2.63;1.80;;;;;8.90;100873.00;;;;5027288;28;20199;-80
2021/01/27 05:41:02;;;;;;;1.90;1.48;;;;;8.90;100877.00;;;;5027919;28;20207;-79
2021/01/27 05:43:30;;;;;;;2.10;1.75;;;;;9.00;100873.00;;;;5009351;28;20307;-78
2021/01/27 05:46:14;;;;;;;2.13;1.65;;;;;8.90;100865.00;;;;5025644;28;20262;-79
2021/01/27 05:48:48;;;;;;;1.73;1.52;;;;;8.90;100861.00;;;;5028450;28;20188;-79
2021/01/27 05:51:18;;;;;;;1.83;1.33;;;;;9.00;100851.00;;;;5027695;28;20191;-79
2021/01/27 05:53:45;;;;;;;1.80;1.60;;;;;9.00;100844.00;;;;5027808;28;20204;-79
2021/01/27 05:56:17;;;;;;;2.63;2.10;;;;;9.00;100850.00;;;;5028129;28;20250;-79
2021/01/27 05:58:57;;;;;;;2.58;1.85;;;;;9.00;100838.00;;;;5018670;28;20201;-79
2021/01/27 06:01:38;;;;;;;2.30;2.10;;;;;9.00;100847.00;;;;5026756;28;20582;-79
2021/01/27 06:04:17;;;;;;;2.17;1.80;;;;;8.90;100845.00;;;;5028467;28;20211;-79
2021/01/27 06:06:56;;;;;;;1.98;1.67;;;;;8.90;100850.00;;;;5027906;28;20231;-79
2021/01/27 06:09:33;;;;;;;1.98;1.80;;;;;8.90;100847.00;;;;5028466;28;20196;-79
2021/01/27 06:12:01;;;;;;;2.22;1.80;;;;;9.00;100845.00;;;;5027715;28;20558;-79
2021/01/27 06:14:28;;;;;;;1.90;1.70;;;;;9.00;100833.00;;;;5028688;28;20243;-79
2021/01/27 06:16:55;;;;;;;2.50;2.17;;;;;9.00;100825.00;;;;5026754;28;20212;-79
2021/01/27 06:19:25;;;;;;;3.15;1.70;;;;;9.00;100823.00;;;;5027669;28;20197;-79
2021/01/27 06:22:17;;;;;;;2.50;2.13;;;;;8.90;100826.00;;;;5027131;28;20197;-79
2021/01/27 06:24:52;;;;;;;2.35;1.83;;;;;9.00;100838.00;;;;5024477;28;20200;-80
2021/01/27 06:27:46;;;;;;;2.08;1.88;;;;;8.90;100830.00;;;;5013906;28;20228;-79
2021/01/27 06:30:37;;;;;;;3.05;2.00;;;;;8.90;100828.00;;;;5027204;28;20192;-79
2021/01/27 06:33:43;;;;;;;1.80;1.65;;;;;8.90;100833.00;;;;5010144;28;20192;-79
2021/01/27 06:36:30;;;;;;;2.58;1.90;;;;;8.90;100836.00;;;;5023926;28;20594;-80
2021/01/27 06:39:36;;;;;;;1.55;1.45;;;;;8.90;100835.00;;;;5026589;28;20247;-78
2021/01/27 06:42:22;;;;;;;1.65;1.52;;;;;8.90;100838.00;;;;5026661;28;20578;-79
2021/01/27 06:45:10;;;;;;;2.40;1.92;;;;;8.90;100830.00;;;;5026863;28;20342;-79
2021/01/27 06:48:01;;;;;;;3.40;1.90;;;;;8.90;100820.00;;;;5016288;28;20196;-79
2021/01/27 06:50:40;;;;;;;2.13;1.73;;;;;8.90;100802.00;;;;5000232;28;20204;-79
2021/01/27 06:53:34;;;;;;;1.85;1.67;;;;;8.90;100807.00;;;;5025987;28;20192;-79
2021/01/27 06:56:23;;;;;;;2.47;2.05;;;;;8.90;100795.00;;;;5021592;28;20202;-78
2021/01/27 06:59:17;;;;;;;1.70;1.55;;;;;8.90;100786.00;;;;5026459;28;20211;-79
2021/01/27 07:02:14;;;;;;;1.58;1.48;;;;;8.90;100781.00;;;;5026550;28;20690;-79
2021/01/27 07:05:03;;;;;;;2.85;1.95;;;;;8.90;100778.00;;;;5027460;28;20259;-79
2021/01/27 07:07:55;;;;;;;2.22;1.67;;;;;8.90;100787.00;;;;5015259;28;20350;-79
2021/01/27 07:10:55;;;;;;;1.70;1.23;;;;;8.90;100770.00;;;;5026532;28;20971;-79
2021/01/27 07:14:10;;;;;;;1.75;1.48;;;;;8.90;100782.00;;;;5024008;28;20250;-79
2021/01/27 07:17:01;;;;;;;1.90;1.67;;;;;8.90;100784.00;;;;4930175;29;20702;-79
2021/01/27 07:20:02;;;;;;;1.58;1.48;;;;;8.90;100782.00;;;;4927074;29;20295;-78
2021/01/27 07:22:35;;;;;;;1.92;1.52;;;;;9.00;100794.00;;;;5005202;28;20389;-78
2021/01/27 07:25:09;;;;;;;2.25;2.05;;;;;9.00;100792.00;;;;5030126;28;20188;-78
2021/01/27 07:27:47;;;;;;;2.03;1.75;;;;;9.00;100780.00;;;;5030670;28;20593;-78
2021/01/27 07:30:20;;;;;;;1.63;1.52;;;;;9.00;100789.00;;;;5030263;28;20862;-78
2021/01/27 07:32:51;;;;;;;2.35;2.00;;;;;9.00;100768.00;;;;5031194;28;20208;-78
2021/01/27 07:35:22;;;;;;;1.80;1.52;;;;;9.10;100769.00;;;;5030088;28;20235;-79
2021/01/27 07:37:57;;;;;;;1.95;1.75;;;;;9.10;100755.00;;;;5029093;28;20200;-80
2021/01/27 07:40:27;;;;;;;1.98;1.75;;;;;9.10;100766.00;;;;5030052;28;20986;-80
2021/01/27 07:42:58;;;;;;;1.90;1.70;;;;;9.10;100774.00;;;;5029975;28;20822;-80
2021/01/27 07:45:29;;;;;;;1.92;1.77;;;;;9.10;100786.00;;;;5028569;28;20200;-81
2021/01/27 07:48:06;;;;;;;4.35;1.65;;;;;9.10;100776.00;;;;5029303;28;20197;-81
2021/01/27 07:50:33;;;;;;;1.58;1.48;;;;;9.20;100788.00;;;;5030582;28;21059;-81
2021/01/27 07:53:08;;;;;;;1.77;1.60;;;;;9.10;100792.00;;;;5028461;28;20204;-80
2021/01/27 07:55:42;;;;;;;2.28;1.88;;;;;9.20;100795.00;;;;5027473;28;20208;-80
2021/01/27 07:58:13;;;;;;;1.92;1.70;;;;;9.20;100795.00;;;;5029072;28;20200;-78
2021/01/27 08:00:49;;;;;;;1.95;1.83;;;;;9.20;100795.00;;;;5029736;28;20196;-78
2021/01/27 08:03:35;;;;;;;1.92;1.73;;;;;9.20;100795.00;;;;5028816;28;20314;-78
2021/01/27 08:06:05;;;;;;;1.70;1.60;;;;;9.20;100790.00;;;;5028451;28;20228;-78
2021/01/27 08:08:45;;;;;;;2.00;1.80;;;;;9.10;100785.00;;;;5029134;28;20196;-79
2021/01/27 08:11:14;;;;;;;2.17;1.80;;;;;9.20;100791.00;;;;5029917;28;20197;-78
2021/01/27 08:13:43;;;;;;;1.75;1.60;;;;;9.20;100791.00;;;;5024596;28;20219;-78
2021/01/27 08:16:30;;;;;;;2.65;1.65;;;;;9.20;100781.00;;;;5027719;28;20217;-78
2021/01/27 08:19:28;;;;;;;3.70;1.70;;;;;9.10;100781.00;;;;5029865;28;20740;-79
2021/01/27 08:22:01;;;;;;;2.10;1.90;;;;;9.20;100777.00;;;;5030020;28;20203;-79
2021/01/27 08:24:56;;;;;;;2.00;1.80;;;;;9.10;100790.00;;;;5029881;28;20731;-79
2021/01/27 08:27:38;;;;;;;2.03;1.83;;;;;9.10;100790.00;;;;5024087;28;20224;-78
2021/01/27 08:30:28;;;;;;;2.67;2.42;;;;;9.20;100787.00;;;;5027421;28;20212;-79
2021/01/27 08:33:37;;;;;;;2.38;2.15;;;;;9.20;100784.00;;;;5028870;28;20193;-78
2021/01/27 08:36:08;;;;;;;1.90;1.80;;;;;9.30;100783.00;;;;5012268;28;20543;-79
2021/01/27 08:38:37;;;;;;;2.45;2.22;;;;;9.30;100776.00;;;;5022713;28;20702;-79
2021/01/27 08:41:11;;;;;;;2.42;2.22;;;;;9.30;100783.00;;;;5018789;28;20211;-78
2021/01/27 08:43:42;;;;;;;2.30;2.10;;;;;9.30;100775.00;;;;5019565;28;20212;-79
2021/01/27 08:46:31;;;;;;;3.17;2.53;;;;;9.20;100784.00;;;;5015178;28;20220;-78
2021/01/27 08:48:59;;;;;;;2.78;2.55;;;;;9.30;100790.00;;;;5016622;28;20204;-79
2021/01/27 08:51:45;;;;;;;3.13;2.72;;;;;9.30;100794.00;;;;5012166;28;20193;-79
2021/01/27 08:54:45;;;;;;;3.13;2.63;;;;;9.30;100790.00;;;;5024443;28;20200;-80
2021/01/27 08:57:19;;;;;;;2.70;2.40;;;;;9.30;100807.00;;;;5017265;28;20247;-78
2021/01/27 08:59:57;;;;;;;3.08;2.63;;;;;9.30;100799.00;;;;5019448;28;20247;-80
2021/01/27 09:02:54;;;;;;;3.97;3.08;;;;;9.30;100805.00;;;;5015424;28;20185;-80
2021/01/27 09:05:45;;;;;;;3.95;3.35;;;;;9.30;100802.00;;;;4938022;28;20216;-78
2021/01/27 09:08:31;;;;;;;4.22;3.70;;;;;9.40;100800.00;;;;5006843;28;20201;-80
2021/01/27 09:11:48;;;;;;;4.03;3.30;;;;;9.40;100801.00;;;;5008825;28;20553;-78
2021/01/27 09:15:06;;;;;;;4.15;3.60;;;;;9.40;100811.00;;;;4989422;28;20223;-78
2021/01/27 09:18:23;;;;;;;2.90;2.60;;;;;9.40;100810.00;;;;5015566;28;20216;-79
2021/01/27 09:21:39;;;;;;;3.70;3.13;;;;;9.40;100810.00;;;;5011437;28;20200;-79
2021/01/27 09:24:57;;;;;;;4.60;3.60;;;;;9.40;100809.00;;;;5008593;28;20606;-80
2021/01/27 09:28:13;;;;;;;4.15;3.28;;;;;9.40;100806.00;;;;5012961;28;20571;-82
2021/01/27 09:31:31;;;;;;;3.38;2.72;;;;;9.50;100814.00;;;;5019309;28;20631;-82
2021/01/27 09:34:49;;;;;;;3.30;2.83;;;;;9.50;100811.00;;;;5020747;28;20216;-82
2021/01/27 09:38:06;;;;;;;4.15;3.38;;;;;9.50;100823.00;;;;5007792;28;20201;-81
2021/01/27 09:40:39;;;;;;;3.85;3.20;;;;;9.60;100823.00;;;;5015187;28;20209;-80
2021/01/27 09:43:09;;;;;;;4.18;3.58;;;;;9.70;100833.00;;;;5010594;28;20272;-79
2021/01/27 09:45:38;;;;;;;4.20;3.58;;;;;9.70;100834.00;;;;5008757;28;20196;-82
2021/01/27 09:48:06;;;;;;;3.97;3.55;;;;;9.80;100827.00;;;;5009386;28;20215;-80
2021/01/27 09:57:11;;;;;;;3.60;3.10;;;;;9.70;100834.00;;;;5027106;28;20274;-78
2021/01/27 09:59:39;;;;;;;3.67;3.33;;;;;9.80;100828.00;;;;5027899;28;20254;-79
2021/01/27 10:02:10;;;;;;;3.47;3.17;;;;;9.90;100834.00;;;;5029551;28;20207;-79
2021/01/27 10:04:38;;;;;;;3.85;2.92;;;;;9.90;100838.00;;;;5028135;28;20220;-78
2021/01/27 10:07:15;;;;;;;4.03;3.35;;;;;9.90;100832.00;;;;5027316;28;20236;-78
2021/01/27 10:09:47;;;;;;;5.68;3.53;;;;;10.00;100836.00;;;;5026567;28;20200;-78
2021/01/27 10:12:23;;;;;;;4.43;3.33;;;;;10.00;100832.00;;;;5027557;28;20200;-78
2021/01/27 10:14:56;;;;;;;5.00;3.17;;;;;10.10;100832.00;;;;5028148;28;20207;-78
2021/01/27 10:17:29;;;;;;;3.70;3.00;;;;;10.10;100838.00;;;;5031144;28;20211;-78
2021/01/27 10:20:05;;;;;;;4.22;3.58;;;;;10.10;100835.00;;;;5029393;28;20283;-78
2021/01/27 10:22:37;;;;;;;3.25;2.67;;;;;10.10;100843.00;;;;5027033;28;20798;-79
2021/01/27 10:25:19;;;;;;;4.38;3.60;;;;;10.20;100839.00;;;;5026177;28;20572;-80
2021/01/27 10:27:53;;;;;;;4.22;3.45;;;;;10.20;100849.00;;;;5021622;28;20235;-81
2021/01/27 10:30:39;;;;;;;4.15;3.50;;;;;10.20;100850.00;;;;5027705;28;20204;-79
2021/01/27 10:33:26;;;;;;;4.32;3.70;;;;;10.20;100834.00;;;;5026381;28;20274;-81
2021/01/27 10:35:52;;;;;;;5.10;4.05;;;;;10.30;100844.00;;;;5027442;28;20211;-80
2021/01/27 10:38:24;;;;;;;5.28;3.67;;;;;10.30;100847.00;;;;5028297;28;20204;-79
2021/01/27 10:41:08;;;;;;;4.25;2.97;;;;;10.20;100844.00;;;;5025993;28;20200;-79
2021/01/27 10:43:35;;;;;;;5.63;4.13;;;;;10.30;100836.00;;;;5026569;28;20223;-79
2021/01/27 10:46:27;;;;;;;4.55;3.65;;;;;10.30;100833.00;;;;5026368;28;20643;-78
2021/01/27 10:48:54;;;;;;;3.95;3.08;;;;;10.40;100830.00;;;;5019665;28;20196;-80
2021/01/27 10:51:22;;;;;;;4.47;3.80;;;;;10.40;100837.00;;;;5025935;28;20217;-79
2021/01/27 10:53:48;;;;;;;4.82;3.88;;;;;10.50;100830.00;;;;5032360;28;20668;-77
2021/01/27 10:56:18;;;;;;;5.82;4.00;;;;;10.50;100838.00;;;;5021046;28;20200;-78
2021/01/27 10:58:46;;;;;;;5.35;4.13;;;;;10.50;100836.00;;;;5006952;28;20200;-79
2021/01/27 11:01:13;;;;;;;5.70;4.45;;;;;10.50;100844.00;;;;5016046;28;20964;-78
2021/01/27 11:03:40;;;;;;;5.75;4.30;;;;;10.60;100844.00;;;;5014278;28;20287;-77
2021/01/27 11:06:06;;;;;;;5.13;3.75;;;;;10.60;100843.00;;;;5016757;28;20701;-78
2021/01/27 11:08:35;;;;;;;5.63;4.20;;;;;10.60;100837.00;;;;5007798;28;20262;-79
2021/01/27 11:11:04;;;;;;;5.18;3.70;;;;;10.60;100836.00;;;;5017297;28;20204;-79
2021/01/27 11:13:32;;;;;;;6.82;4.38;;;;;10.70;100844.00;;;;5010251;28;20263;-77
2021/01/27 11:16:00;;;;;;;6.20;4.03;;;;;10.80;100844.00;;;;5015300;28;20581;-79
2021/01/27 11:18:27;;;;;;;7.88;5.03;;;;;10.80;100838.00;;;;5014189;28;20658;-79
2021/01/27 11:20:54;;;;;;;6.53;4.50;;;;;10.90;100844.00;;;;5031691;28;20200;-79
2021/01/27 11:23:21;;;;;;;5.38;4.55;;;;;10.90;100843.00;;;;5018443;28;20250;-79
2021/01/27 11:25:49;;;;;;;6.65;4.43;;;;;11.00;100844.00;;;;5016278;28;20204;-79
2021/01/27 11:28:16;;;;;;;5.90;4.65;;;;;11.00;100830.00;;;;5023121;28;20577;-82
2021/01/27 11:30:43;;;;;;;6.72;4.72;;;;;11.10;100830.00;;;;5017440;28;20239;-77
2021/01/27 11:33:11;;;;;;;7.30;5.40;;;;;11.10;100847.00;;;;5015511;28;20205;-76
2021/01/27 11:35:37;;;;;;;5.32;4.32;;;;;11.20;100830.00;;;;5014086;28;20748;-78
2021/01/27 11:38:04;;;;;;;9.63;4.90;;;;;11.20;100826.00;;;;5018445;28;20203;-77
2021/01/27 11:40:31;;;;;;;6.95;4.93;;;;;11.20;100825.00;;;;5015184;28;20205;-77
2021/01/27 11:42:58;;;;;;;6.63;5.10;;;;;11.30;100831.00;;;;5022037;28;20254;-77
2021/01/27 11:45:24;;;;;;;5.75;4.50;;;;;11.30;100833.00;;;;5020748;28;20239;-77
2021/01/27 11:47:51;;;;;;;7.03;5.30;;;;;11.40;100834.00;;;;5011020;28;20228;-78
2021/01/27 11:50:22;;;;;;;7.28;4.55;;;;;11.40;100830.00;;;;5017130;28;20604;-77
2021/01/27 11:52:49;;;;;;;5.65;4.05;;;;;11.50;100821.00;;;;5015353;28;20809;-78
2021/01/27 11:55:18;;;;;;;5.60;4.18;;;;;11.60;100821.00;;;;5017255;28;20565;-78
2021/01/27 11:57:45;;;;;;;6.18;4.55;;;;;11.60;100817.00;;;;5022742;28;20207;-78
2021/01/27 12:00:14;;;;;;;6.72;5.00;;;;;11.70;100817.00;;;;5014251;28;20617;-77
2021/01/27 12:02:40;;;;;;;6.32;4.85;;;;;11.70;100817.00;;;;5016067;28;20538;-78
2021/01/27 12:05:09;;;;;;;7.43;5.57;;;;;11.80;100823.00;;;;5011595;28;20199;-77
2021/01/27 12:07:36;;;;;;;8.15;4.82;;;;;11.80;100817.00;;;;5015391;28;20247;-78
2021/01/27 12:10:04;;;;;;;7.07;5.03;;;;;11.80;100821.00;;;;5011921;28;20201;-78
2021/01/27 12:12:31;;;;;;;9.63;5.20;;;;;11.90;100817.00;;;;5029847;28;20227;-77
2021/01/27 12:14:58;;;;;;;6.85;4.93;;;;;11.90;100819.00;;;;5030572;28;20203;-78
2021/01/27 12:17:24;;;;;;;6.78;5.07;;;;;11.90;100825.00;;;;5028278;28;20196;-78
2021/01/27 12:19:51;;;;;;;7.13;4.53;;;;;12.00;100824.00;;;;5028328;28;20204;-78
2021/01/27 12:22:18;;;;;;;6.35;3.92;;;;;12.00;100827.00;;;;5020700;28;20563;-77
2021/01/27 12:24:45;;;;;;;6.80;5.07;;;;;12.00;100824.00;;;;5017535;28;20239;-78
2021/01/27 12:27:12;;;;;;;7.60;5.35;;;;;12.10;100827.00;;;;5016130;28;20604;-78
2021/01/27 12:29:40;;;;;;;5.88;4.35;;;;;12.10;100829.00;;;;5011163;28;20200;-78
2021/01/27 12:32:07;;;;;;;7.03;5.38;;;;;12.10;100830.00;;;;5014639;28;20193;-79
2021/01/27 12:34:33;;;;;;;5.90;4.32;;;;;12.10;100832.00;;;;5012987;28;20196;-77
2021/01/27 12:37:01;;;;;;;7.47;5.28;;;;;12.10;100837.00;;;;5025782;28;20196;-78
2021/01/27 12:39:28;;;;;;;5.82;4.45;;;;;12.20;100836.00;;;;5028744;28;20200;-79
2021/01/27 12:41:56;;;;;;;7.53;4.88;;;;;12.20;100839.00;;;;5012494;28;20216;-78
2021/01/27 12:44:23;;;;;;;7.15;5.50;;;;;12.20;100827.00;;;;5020038;28;20252;-78
2021/01/27 12:46:49;;;;;;;6.65;4.45;;;;;12.30;100837.00;;;;5027990;28;20239;-79
2021/01/27 12:49:16;;;;;;;6.07;4.40;;;;;12.30;100847.00;;;;5018919;28;20201;-79
2021/01/27 12:51:44;;;;;;;6.90;4.53;;;;;12.30;100836.00;;;;5010443;28;20220;-78
2021/01/27 12:54:11;;;;;;;6.65;4.47;;;;;12.40;100847.00;;;;4992734;28;20234;-79
2021/01/27 12:56:38;;;;;;;6.53;4.57;;;;;12.40;100843.00;;;;5007276;28;20658;-78
2021/01/27 12:59:05;;;;;;;7.28;5.47;;;;;12.40;100844.00;;;;5015307;28;20220;-78
2021/01/27 13:01:32;;;;;;;7.00;4.90;;;;;12.50;100848.00;;;;5015946;28;20864;-79
2021/01/27 13:03:59;;;;;;;5.82;4.53;;;;;12.50;100843.00;;;;5014647;28;20197;-78
2021/01/27 13:06:26;;;;;;;6.05;4.55;;;;;12.50;100843.00;;;;5011883;28;20225;-80